Time;durP1;ratioP1;P1;durP2;ratioP2;P2;SDS_P1;SDS_P2;PMS_P1;PMS_P2;Temp;Humidity;BMP_temperature;BMP_pressure;BME280_temperature;BME280_humidity;BME280_pressure;Samples;Min_cycle;Max_cycle;Signal;HPM_P1;HPM_P2
2024/01/13 00:02:13;;;;;;;10.25;1.48;;;3.30;95.70;;;;;;5010039;28;20026;-59
2024/01/13 00:04:40;;;;;;;6.80;1.27;;;3.40;95.70;;;;;;5010249;28;20026;-56
2024/01/13 00:07:08;;;;;;;4.68;1.10;;;3.40;95.80;;;;;;5009770;28;20436;-56
2024/01/13 00:09:35;;;;;;;9.90;1.73;;;3.40;95.80;;;;;;5078318;28;20034;-58
2024/01/13 00:12:02;;;;;;;7.30;1.23;;;3.40;95.90;;;;;;5000741;28;20045;-59
2024/01/13 00:14:29;;;;;;;6.10;1.48;;;3.40;95.90;;;;;;5005162;28;20026;-59
2024/01/13 00:16:56;;;;;;;7.65;1.55;;;3.50;95.90;;;;;;5010433;28;20113;-59
2024/01/13 00:19:23;;;;;;;4.40;1.20;;;3.50;95.90;;;;;;5003163;28;20068;-60
2024/01/13 00:21:50;;;;;;;4.65;1.63;;;3.50;95.80;;;;;;5007702;28;20437;-59
2024/01/13 00:24:17;;;;;;;6.00;1.73;;;3.40;95.80;;;;;;5009449;28;20033;-57
2024/01/13 00:26:43;;;;;;;2.45;0.98;;;3.40;95.90;;;;;;5009033;28;20097;-57
2024/01/13 00:29:11;;;;;;;8.80;2.17;;;3.50;96.00;;;;;;5009639;28;20070;-54
2024/01/13 00:31:41;;;;;;;12.75;2.03;;;3.50;96.00;;;;;;5006929;28;20557;-57
2024/01/13 00:34:08;;;;;;;7.72;1.30;;;3.50;96.10;;;;;;5010654;28;20371;-56
2024/01/13 00:36:35;;;;;;;4.07;1.00;;;3.50;96.10;;;;;;5008632;28;20447;-56
2024/01/13 00:39:05;;;;;;;4.10;1.20;;;3.50;96.10;;;;;;5010752;28;20042;-52
2024/01/13 00:41:34;;;;;;;4.50;1.13;;;3.50;96.10;;;;;;5005277;28;20399;-53
2024/01/13 00:44:00;;;;;;;4.57;1.15;;;3.50;96.10;;;;;;5010637;28;20388;-53
2024/01/13 00:46:27;;;;;;;4.57;1.50;;;3.50;96.10;;;;;;5029462;28;20420;-51
2024/01/13 00:48:54;;;;;;;4.38;1.50;;;3.50;96.10;;;;;;5022041;28;20028;-51
2024/01/13 00:51:21;;;;;;;6.72;1.40;;;3.50;96.10;;;;;;5027126;28;20038;-54
2024/01/13 00:53:48;;;;;;;4.72;1.02;;;3.50;96.10;;;;;;5027161;28;20067;-55
2024/01/13 00:56:15;;;;;;;3.80;1.33;;;3.50;96.10;;;;;;5029588;28;20025;-54
2024/01/13 00:58:44;;;;;;;3.63;1.40;;;3.50;96.10;;;;;;5011930;28;20366;-55
2024/01/13 01:01:13;;;;;;;8.05;2.13;;;3.50;96.10;;;;;;5030035;28;20450;-51
2024/01/13 01:03:40;;;;;;;8.85;2.53;;;3.50;96.10;;;;;;5026783;28;20045;-51
2024/01/13 01:06:09;;;;;;;10.30;5.18;;;3.50;96.00;;;;;;5026057;28;20163;-54
2024/01/13 01:08:36;;;;;;;12.77;5.28;;;3.50;96.00;;;;;;5026657;28;20032;-52
2024/01/13 01:11:05;;;;;;;7.53;3.17;;;3.50;96.00;;;;;;5028965;28;20037;-57
2024/01/13 01:13:32;;;;;;;7.10;2.80;;;3.40;96.00;;;;;;5028233;28;20029;-56
2024/01/13 01:16:00;;;;;;;12.23;4.72;;;3.50;96.00;;;;;;5029596;28;20430;-56
2024/01/13 01:18:27;;;;;;;18.80;6.30;;;3.40;96.00;;;;;;5029786;28;20513;-57
2024/01/13 01:20:54;;;;;;;21.63;5.22;;;3.40;95.90;;;;;;5019663;28;20057;-56
2024/01/13 01:23:21;;;;;;;17.73;4.25;;;3.40;95.90;;;;;;5027610;28;20447;-57
2024/01/13 01:25:47;;;;;;;15.40;4.38;;;3.40;95.90;;;;;;5029677;28;20025;-58
2024/01/13 01:28:14;;;;;;;9.63;3.63;;;3.30;95.80;;;;;;5027825;28;20399;-54
2024/01/13 01:30:41;;;;;;;15.00;3.33;;;3.30;95.80;;;;;;5029245;28;20033;-51
2024/01/13 01:33:08;;;;;;;7.13;2.65;;;3.20;95.90;;;;;;5027645;28;20037;-54
2024/01/13 01:35:34;;;;;;;5.93;2.25;;;3.20;95.90;;;;;;5029296;28;20026;-53
2024/01/13 01:38:01;;;;;;;9.95;3.72;;;3.20;95.90;;;;;;5042089;27;20023;-53
2024/01/13 01:40:30;;;;;;;9.10;4.13;;;3.30;96.00;;;;;;5029310;28;20405;-52
2024/01/13 01:42:57;;;;;;;10.10;3.75;;;3.30;96.00;;;;;;5028634;28;20037;-56
2024/01/13 01:45:27;;;;;;;16.52;4.60;;;3.30;96.10;;;;;;5029143;28;20067;-59
2024/01/13 01:47:55;;;;;;;13.77;4.22;;;3.40;96.00;;;;;;5027771;28;20048;-60
2024/01/13 01:50:22;;;;;;;8.40;4.47;;;3.40;96.10;;;;;;5029061;28;20039;-56
2024/01/13 01:52:49;;;;;;;7.65;3.05;;;3.40;96.10;;;;;;5028592;28;20056;-59
2024/01/13 01:55:16;;;;;;;5.63;2.60;;;3.40;96.20;;;;;;5029127;28;20032;-55
2024/01/13 01:57:43;;;;;;;8.18;2.33;;;3.40;96.20;;;;;;5023464;28;20052;-58
2024/01/13 02:00:11;;;;;;;5.38;1.90;;;3.50;96.20;;;;;;5029125;28;20049;-58
2024/01/13 02:02:41;;;;;;;4.22;1.98;;;3.50;96.20;;;;;;5027514;28;20033;-57
2024/01/13 02:05:09;;;;;;;6.38;1.48;;;3.50;96.20;;;;;;5028981;28;20043;-56
2024/01/13 02:07:36;;;;;;;6.45;1.52;;;3.60;96.20;;;;;;5027664;28;20018;-55
2024/01/13 02:10:03;;;;;;;5.80;1.50;;;3.50;96.20;;;;;;5028880;28;20040;-56
2024/01/13 02:12:30;;;;;;;8.90;2.35;;;3.50;96.20;;;;;;5027324;28;20025;-58
2024/01/13 02:14:57;;;;;;;4.55;1.25;;;3.50;96.20;;;;;;5027843;28;20014;-58
2024/01/13 02:17:24;;;;;;;4.32;1.50;;;3.50;96.20;;;;;;5028931;28;20021;-57
2024/01/13 02:19:50;;;;;;;4.28;1.10;;;3.50;96.20;;;;;;5027569;28;20022;-57
2024/01/13 02:22:17;;;;;;;7.10;1.52;;;3.50;96.30;;;;;;5028871;28;20108;-54
2024/01/13 02:24:45;;;;;;;4.63;1.10;;;3.50;96.30;;;;;;5028944;28;20029;-56
2024/01/13 02:27:12;;;;;;;5.30;1.05;;;3.50;96.40;;;;;;5016816;28;20064;-54
2024/01/13 02:29:38;;;;;;;5.65;1.13;;;3.50;96.40;;;;;;5028580;28;20044;-54
2024/01/13 02:32:08;;;;;;;7.45;2.08;;;3.50;96.40;;;;;;5028419;28;20021;-52
2024/01/13 02:34:36;;;;;;;5.15;2.50;;;3.60;96.40;;;;;;5027048;28;20021;-52
2024/01/13 02:37:01;;;;;;;7.45;3.05;;;3.60;96.40;;;;;;5028262;28;20098;-52
2024/01/13 02:39:27;;;;;;;5.28;1.88;;;3.60;96.40;;;;;;5044335;28;20041;-52
2024/01/13 02:41:53;;;;;;;4.55;1.30;;;3.60;96.40;;;;;;5027217;28;20354;-51
2024/01/13 02:44:18;;;;;;;6.30;1.45;;;3.60;96.40;;;;;;5028268;28;20153;-53
2024/01/13 02:46:47;;;;;;;4.15;1.30;;;3.60;96.50;;;;;;5028386;28;20112;-54
2024/01/13 02:49:16;;;;;;;9.63;1.93;;;3.60;96.40;;;;;;5026967;28;20076;-52
2024/01/13 02:51:42;;;;;;;6.75;1.77;;;3.60;96.40;;;;;;5028105;28;20355;-54
2024/01/13 02:54:09;;;;;;;7.93;2.70;;;3.60;96.40;;;;;;5027331;28;20052;-56
2024/01/13 02:56:36;;;;;;;7.68;2.70;;;3.60;96.40;;;;;;5023676;28;20098;-57
2024/01/13 02:59:03;;;;;;;9.10;2.60;;;3.60;96.40;;;;;;5028048;28;20041;-57
2024/01/13 03:01:30;;;;;;;6.90;2.63;;;3.60;96.40;;;;;;5022016;28;20038;-53
2024/01/13 03:03:57;;;;;;;6.82;1.80;;;3.60;96.40;;;;;;5028388;28;20033;-53
2024/01/13 03:06:25;;;;;;;7.85;1.63;;;3.50;96.40;;;;;;5029688;28;20081;-53
2024/01/13 03:08:55;;;;;;;10.32;1.70;;;3.50;96.40;;;;;;5031632;28;20117;-51
2024/01/13 03:11:25;;;;;;;7.72;1.58;;;3.50;96.40;;;;;;5031664;28;20041;-54
2024/01/13 03:13:52;;;;;;;;;;;3.50;96.40;;;;;;5019553;28;20094;-52
2024/01/13 03:16:19;;;;;;;4.60;1.35;;;3.40;96.40;;;;;;5029949;28;19948;-51
2024/01/13 03:18:45;;;;;;;8.93;1.42;;;3.40;96.40;;;;;;5013926;28;20028;-53
2024/01/13 03:21:14;;;;;;;5.70;1.00;;;3.40;96.40;;;;;;5031362;28;20486;-53
2024/01/13 03:23:47;;;;;;;6.40;1.10;;;3.40;96.40;;;;;;5030184;28;20041;-54
2024/01/13 03:26:14;;;;;;;3.88;0.90;;;3.40;96.50;;;;;;5031558;28;20120;-53
2024/01/13 03:28:43;;;;;;;6.75;1.45;;;3.40;96.50;;;;;;5031404;28;20482;-50
2024/01/13 03:31:12;;;;;;;3.60;0.85;;;3.40;96.50;;;;;;5030078;28;20041;-52
2024/01/13 03:33:39;;;;;;;3.43;1.50;;;3.40;96.50;;;;;;5031442;28;20034;-56
2024/01/13 03:36:09;;;;;;;5.15;1.10;;;3.50;96.50;;;;;;5013672;28;20280;-57
2024/01/13 03:38:36;;;;;;;5.28;1.08;;;3.40;96.50;;;;;;5033759;27;20026;-57
2024/01/13 03:41:03;;;;;;;8.57;1.35;;;3.40;96.50;;;;;;5030899;28;20478;-57
2024/01/13 03:43:29;;;;;;;2.90;0.75;;;3.50;96.60;;;;;;5031079;28;20078;-55
2024/01/13 03:45:56;;;;;;;4.53;0.98;;;3.50;96.60;;;;;;5030702;28;20048;-54
2024/01/13 03:48:21;;;;;;;5.05;1.17;;;3.50;96.60;;;;;;5029818;28;20106;-54
2024/01/13 03:50:48;;;;;;;2.72;1.27;;;3.40;96.50;;;;;;5031022;28;21152;-53
2024/01/13 03:53:15;;;;;;;4.50;1.00;;;3.40;96.60;;;;;;5031154;28;20036;-56
2024/01/13 03:55:42;;;;;;;2.00;0.70;;;3.50;96.50;;;;;;5025376;28;20056;-54
2024/01/13 03:58:09;;;;;;;7.60;0.70;;;3.50;96.60;;;;;;5022386;28;20029;-50
2024/01/13 04:00:39;;;;;;;3.30;1.92;;;3.40;96.60;;;;;;5030750;28;20100;-53
2024/01/13 04:03:06;;;;;;;3.30;1.13;;;3.40;96.60;;;;;;5014548;28;20053;-51
2024/01/13 04:05:32;;;;;;;2.65;0.90;;;3.40;96.60;;;;;;5029416;28;20504;-52
2024/01/13 04:07:58;;;;;;;2.08;0.70;;;3.40;96.60;;;;;;5029396;28;20061;-53
2024/01/13 04:10:25;;;;;;;7.15;2.58;;;3.40;96.50;;;;;;5006928;28;20026;-53
2024/01/13 04:12:51;;;;;;;2.38;0.75;;;3.40;96.60;;;;;;5026068;28;20032;-50
2024/01/13 04:15:21;;;;;;;2.25;0.65;;;3.30;96.50;;;;;;5028194;28;20112;-50
2024/01/13 04:17:48;;;;;;;5.78;0.60;;;3.30;96.60;;;;;;5029872;28;20120;-53
2024/01/13 04:20:15;;;;;;;3.25;0.90;;;3.40;96.60;;;;;;5028975;28;20362;-50
2024/01/13 04:22:41;;;;;;;2.47;0.70;;;3.40;96.60;;;;;;5029807;28;20029;-51
2024/01/13 04:25:08;;;;;;;4.15;0.90;;;3.40;96.60;;;;;;5029606;28;20018;-50
2024/01/13 04:27:35;;;;;;;2.50;0.90;;;3.40;96.60;;;;;;5026473;28;20025;-51
2024/01/13 04:30:02;;;;;;;3.85;0.90;;;3.40;96.60;;;;;;5030231;28;20029;-49
2024/01/13 04:32:29;;;;;;;4.38;1.20;;;3.30;96.50;;;;;;5009266;28;20030;-53
2024/01/13 04:34:59;;;;;;;3.88;0.70;;;3.30;96.50;;;;;;5004282;28;20050;-53
2024/01/13 04:37:25;;;;;;;5.40;0.57;;;3.30;96.60;;;;;;5022303;28;20029;-58
2024/01/13 04:39:52;;;;;;;2.55;0.60;;;3.30;96.70;;;;;;5029061;27;20169;-56
2024/01/13 04:42:20;;;;;;;2.35;0.50;;;3.40;96.70;;;;;;5025572;28;20030;-55
2024/01/13 04:44:51;;;;;;;2.20;1.08;;;3.40;96.70;;;;;;5028385;28;20057;-55
2024/01/13 04:47:18;;;;;;;4.68;0.80;;;3.40;96.70;;;;;;5018117;28;20026;-55
2024/01/13 04:49:48;;;;;;;3.03;0.43;;;3.40;96.70;;;;;;5000565;28;20034;-55
2024/01/13 04:52:17;;;;;;;2.95;0.90;;;3.40;96.70;;;;;;5016138;28;20482;-53
2024/01/13 04:54:44;;;;;;;8.95;3.28;;;3.50;96.70;;;;;;5016745;28;20026;-51
2024/01/13 04:57:15;;;;;;;11.80;3.90;;;3.50;96.70;;;;;;5013485;28;20750;-50
2024/01/13 04:59:44;;;;;;;14.75;4.85;;;3.40;96.70;;;;;;5009293;28;20411;-54
2024/01/13 05:02:10;;;;;;;9.87;4.47;;;3.50;96.60;;;;;;5013654;28;20552;-52
2024/01/13 05:04:37;;;;;;;10.50;4.63;;;3.40;96.70;;;;;;5013419;28;20287;-51
2024/01/13 05:07:09;;;;;;;7.55;2.83;;;3.40;96.60;;;;;;5027055;28;20025;-53
2024/01/13 05:09:37;;;;;;;8.98;2.67;;;3.40;96.60;;;;;;5027231;28;20021;-50
2024/01/13 05:12:05;;;;;;;13.20;5.45;;;3.40;96.60;;;;;;5011389;28;20065;-55
2024/01/13 05:14:32;;;;;;;10.13;2.60;;;3.40;96.60;;;;;;5010139;28;20055;-55
2024/01/13 05:16:59;;;;;;;5.03;1.48;;;3.40;96.60;;;;;;5013802;28;20021;-55
2024/01/13 05:19:24;;;;;;;4.57;2.13;;;3.40;96.60;;;;;;5010020;28;20486;-56
2024/01/13 05:21:54;;;;;;;5.60;2.15;;;3.40;96.70;;;;;;5016764;28;20033;-57
2024/01/13 05:24:21;;;;;;;5.85;1.50;;;3.40;96.60;;;;;;5021530;28;20431;-53
2024/01/13 05:26:46;;;;;;;5.40;1.10;;;3.40;96.60;;;;;;5020750;28;20041;-54
2024/01/13 05:29:13;;;;;;;2.08;0.75;;;3.40;96.60;;;;;;5022011;28;20021;-53
2024/01/13 05:31:41;;;;;;;4.85;1.20;;;3.40;96.50;;;;;;5023498;28;20342;-51
2024/01/13 05:34:08;;;;;;;3.13;1.02;;;3.30;96.50;;;;;;5018692;28;20385;-53
2024/01/13 05:36:34;;;;;;;1.55;0.63;;;3.30;96.60;;;;;;5022984;28;20025;-50
2024/01/13 05:39:01;;;;;;;1.75;0.70;;;3.30;96.60;;;;;;5028924;27;20030;-50
2024/01/13 05:41:28;;;;;;;3.75;1.23;;;3.30;96.60;;;;;;5022376;28;20033;-51
2024/01/13 05:43:54;;;;;;;2.00;0.73;;;3.30;96.60;;;;;;5022212;28;20303;-49
2024/01/13 05:46:23;;;;;;;2.55;0.90;;;3.30;96.60;;;;;;5024837;28;20056;-51
2024/01/13 05:48:51;;;;;;;4.32;1.00;;;3.40;96.70;;;;;;5023028;28;20022;-49
2024/01/13 05:51:18;;;;;;;3.83;1.42;;;3.40;96.70;;;;;;5024544;28;20328;-49
2024/01/13 05:53:45;;;;;;;17.33;7.55;;;3.30;96.60;;;;;;5018007;28;20018;-50
2024/01/13 05:56:14;;;;;;;46.08;19.52;;;3.40;96.60;;;;;;5009796;28;20087;-49
2024/01/13 05:58:41;;;;;;;17.20;7.75;;;3.40;96.70;;;;;;5012419;28;20018;-50
2024/01/13 06:01:08;;;;;;;7.40;3.10;;;3.40;96.70;;;;;;4994998;28;20025;-51
2024/01/13 06:03:35;;;;;;;5.50;2.03;;;3.40;96.70;;;;;;5012706;28;20052;-49
2024/01/13 06:06:07;;;;;;;4.57;1.73;;;3.50;96.70;;;;;;5012568;28;20025;-55
2024/01/13 06:08:33;;;;;;;3.90;1.50;;;3.50;96.70;;;;;;5014442;28;20432;-58
2024/01/13 06:11:03;;;;;;;4.07;2.08;;;3.50;96.70;;;;;;5017394;28;20351;-54
2024/01/13 06:13:30;;;;;;;6.28;2.10;;;3.40;96.70;;;;;;5021212;28;20017;-55
2024/01/13 06:15:56;;;;;;;8.07;3.08;;;3.50;96.70;;;;;;5009453;28;20037;-54
2024/01/13 06:18:26;;;;;;;8.73;4.30;;;3.50;96.70;;;;;;4992456;28;20029;-55
2024/01/13 06:20:53;;;;;;;7.00;3.00;;;3.40;96.70;;;;;;5009474;28;20038;-54
2024/01/13 06:23:21;;;;;;;5.80;2.33;;;3.50;96.70;;;;;;5009584;28;20101;-52
2024/01/13 06:25:48;;;;;;;5.72;1.60;;;3.50;96.70;;;;;;5009454;28;20022;-50
2024/01/13 06:28:15;;;;;;;2.63;1.10;;;3.40;96.70;;;;;;5009485;28;20032;-54
2024/01/13 06:30:42;;;;;;;3.75;1.15;;;3.50;96.80;;;;;;5009314;28;20040;-51
2024/01/13 06:33:08;;;;;;;2.70;1.38;;;3.50;96.70;;;;;;5009464;28;20030;-51
2024/01/13 06:35:34;;;;;;;6.15;1.60;;;3.50;96.70;;;;;;5009154;28;20018;-51
2024/01/13 06:38:03;;;;;;;4.13;1.63;;;3.50;96.70;;;;;;5022366;27;20025;-53
2024/01/13 06:40:29;;;;;;;3.92;1.70;;;3.50;96.70;;;;;;5009189;28;20010;-50
2024/01/13 06:42:56;;;;;;;5.28;1.80;;;3.50;96.70;;;;;;5008888;28;20036;-53
2024/01/13 06:45:23;;;;;;;4.65;1.38;;;3.40;96.70;;;;;;5010094;28;20061;-57
2024/01/13 06:47:50;;;;;;;5.40;1.30;;;3.40;96.70;;;;;;5008935;28;20166;-57
2024/01/13 06:50:16;;;;;;;8.85;2.40;;;3.40;96.80;;;;;;5008786;28;20026;-54
2024/01/13 06:52:43;;;;;;;5.57;1.85;;;3.50;96.80;;;;;;5008245;28;20086;-57
2024/01/13 06:55:10;;;;;;;4.22;1.98;;;3.50;96.70;;;;;;5008725;28;20023;-55
2024/01/13 06:57:37;;;;;;;5.72;1.20;;;3.50;96.80;;;;;;5017487;28;20301;-52
2024/01/13 07:00:07;;;;;;;7.80;1.83;;;3.50;96.70;;;;;;5016830;28;20333;-55
2024/01/13 07:02:34;;;;;;;6.38;1.63;;;3.50;96.80;;;;;;5014521;28;20403;-52
2024/01/13 07:05:06;;;;;;;2.90;1.30;;;3.50;96.70;;;;;;5011431;28;20030;-51
2024/01/13 07:07:33;;;;;;;3.90;1.05;;;3.50;96.70;;;;;;5008853;28;20030;-51
2024/01/13 07:10:00;;;;;;;5.95;1.50;;;3.50;96.70;;;;;;5013534;28;20087;-54
2024/01/13 07:12:27;;;;;;;8.48;2.10;;;3.50;96.70;;;;;;5011186;28;20065;-55
2024/01/13 07:14:53;;;;;;;6.40;2.42;;;3.50;96.70;;;;;;5015396;28;20093;-54
2024/01/13 07:17:22;;;;;;;7.60;2.95;;;3.40;96.70;;;;;;5009442;28;20057;-50
2024/01/13 07:19:49;;;;;;;4.47;2.28;;;3.40;96.70;;;;;;5015480;28;20038;-52
2024/01/13 07:22:16;;;;;;;4.97;2.00;;;3.40;96.80;;;;;;5009236;28;20042;-50
2024/01/13 07:24:43;;;;;;;6.72;2.35;;;3.50;96.80;;;;;;5017190;28;20034;-54
2024/01/13 07:27:12;;;;;;;3.10;1.90;;;3.40;96.80;;;;;;5016469;28;20109;-54
2024/01/13 07:29:37;;;;;;;5.13;1.92;;;3.40;96.70;;;;;;5012565;28;20033;-52
2024/01/13 07:32:07;;;;;;;4.05;1.60;;;3.50;96.80;;;;;;5009489;28;20037;-57
2024/01/13 07:34:32;;;;;;;3.70;2.38;;;3.50;96.80;;;;;;5007917;28;20026;-53
2024/01/13 07:36:59;;;;;;;3.70;1.50;;;3.50;96.80;;;;;;5008420;28;20029;-54
2024/01/13 07:39:28;;;;;;;5.63;1.80;;;3.50;96.80;;;;;;5020460;28;20058;-56
2024/01/13 07:41:55;;;;;;;6.82;2.17;;;3.50;96.80;;;;;;5014557;28;20082;-54
2024/01/13 07:44:22;;;;;;;4.47;1.92;;;3.50;96.80;;;;;;5008297;28;20046;-55
2024/01/13 07:46:48;;;;;;;6.35;2.10;;;3.50;96.80;;;;;;5008170;28;20026;-51
2024/01/13 07:49:17;;;;;;;4.30;2.00;;;3.50;96.80;;;;;;4990733;28;20026;-57
2024/01/13 07:51:49;;;;;;;10.50;2.38;;;3.50;96.80;;;;;;5012600;28;20099;-54
2024/01/13 07:54:16;;;;;;;6.05;3.72;;;3.50;96.80;;;;;;5012227;28;20029;-52
2024/01/13 07:56:42;;;;;;;6.68;3.33;;;3.50;96.80;;;;;;5012042;28;20360;-56
2024/01/13 07:59:07;;;;;;;5.00;2.60;;;3.50;96.80;;;;;;5019747;28;20022;-53
2024/01/13 08:01:33;;;;;;;4.40;2.33;;;3.50;96.80;;;;;;5012043;28;20030;-51
2024/01/13 08:04:00;;;;;;;5.10;2.28;;;3.60;96.90;;;;;;5027238;28;20650;-54
2024/01/13 08:06:29;;;;;;;6.40;3.17;;;3.60;96.80;;;;;;5022076;28;20466;-54
2024/01/13 08:08:57;;;;;;;4.25;2.45;;;3.60;96.80;;;;;;5018462;28;20026;-56
2024/01/13 08:11:24;;;;;;;3.40;1.92;;;3.50;96.80;;;;;;5018013;28;20030;-56
2024/01/13 08:13:51;;;;;;;5.47;2.47;;;3.50;96.80;;;;;;5017355;28;20034;-56
2024/01/13 08:16:21;;;;;;;6.45;1.88;;;3.50;96.80;;;;;;5013568;28;20390;-53
2024/01/13 08:18:47;;;;;;;3.20;1.15;;;3.50;96.80;;;;;;5011300;28;20022;-54
2024/01/13 08:21:17;;;;;;;5.95;2.15;;;3.60;96.90;;;;;;5010221;28;20113;-52
2024/01/13 08:23:44;;;;;;;;;;;3.60;96.90;;;;;;5016538;28;20105;-54
2024/01/13 08:26:13;;;;;;;4.50;2.00;;;3.60;96.90;;;;;;5019311;28;20563;-52
2024/01/13 08:28:40;;;;;;;4.38;1.80;;;3.70;96.90;;;;;;4993685;28;20019;-50
2024/01/13 08:31:06;;;;;;;3.42;1.67;;;3.70;96.80;;;;;;5012023;28;20034;-51
2024/01/13 08:33:33;;;;;;;5.45;3.05;;;3.60;96.80;;;;;;5018528;28;20060;-50
2024/01/13 08:35:59;;;;;;;2.78;1.55;;;3.60;96.90;;;;;;4998641;28;20130;-50
2024/01/13 08:38:26;;;;;;;5.55;2.33;;;3.70;96.80;;;;;;5030601;27;20333;-49
2024/01/13 08:40:57;;;;;;;5.50;1.73;;;3.70;96.90;;;;;;5010076;28;20034;-51
2024/01/13 08:43:24;;;;;;;4.65;1.83;;;3.80;96.90;;;;;;5022832;28;20057;-48
2024/01/13 08:45:56;;;;;;;7.60;2.55;;;3.80;96.90;;;;;;5010548;28;20050;-49
2024/01/13 08:48:28;;;;;;;3.85;1.88;;;3.80;96.90;;;;;;5010511;28;20053;-50
2024/01/13 08:50:55;;;;;;;4.97;2.33;;;3.90;96.90;;;;;;5012516;28;20026;-48
2024/01/13 08:53:22;;;;;;;4.53;1.95;;;3.90;96.80;;;;;;5009382;28;20374;-48
2024/01/13 08:55:48;;;;;;;6.50;2.90;;;3.80;96.80;;;;;;5014615;28;20026;-48
2024/01/13 08:58:14;;;;;;;4.60;2.25;;;3.80;96.80;;;;;;5010299;28;20102;-48
2024/01/13 09:00:41;;;;;;;4.90;2.03;;;3.80;96.80;;;;;;4998701;28;20121;-52
2024/01/13 09:03:06;;;;;;;3.80;2.25;;;3.80;96.80;;;;;;5009813;28;20037;-49
2024/01/13 09:05:32;;;;;;;4.82;2.28;;;3.80;96.80;;;;;;5009703;28;20026;-49
2024/01/13 09:08:00;;;;;;;4.28;2.42;;;3.80;96.80;;;;;;5020548;28;20039;-56
2024/01/13 09:10:27;;;;;;;5.63;2.85;;;3.70;96.70;;;;;;5011990;28;20034;-49
2024/01/13 09:12:54;;;;;;;6.38;3.13;;;3.70;96.70;;;;;;4992498;28;20041;-50
2024/01/13 09:15:20;;;;;;;7.53;2.95;;;3.70;96.70;;;;;;5009550;28;20098;-51
2024/01/13 09:17:47;;;;;;;9.25;4.97;;;3.70;96.70;;;;;;5010166;28;20454;-49
2024/01/13 09:20:14;;;;;;;8.30;4.10;;;3.70;96.80;;;;;;5010084;28;20342;-48
2024/01/13 09:22:42;;;;;;;8.55;4.00;;;3.70;96.80;;;;;;5009919;28;20065;-50
2024/01/13 09:25:07;;;;;;;14.25;6.82;;;3.70;96.80;;;;;;5009974;28;20049;-50
2024/01/13 09:27:34;;;;;;;12.43;5.57;;;3.80;96.70;;;;;;5010215;28;20075;-52
2024/01/13 09:30:00;;;;;;;15.23;5.35;;;3.80;96.80;;;;;;5009866;28;20087;-51
2024/01/13 09:32:27;;;;;;;13.77;6.07;;;3.90;96.80;;;;;;4992249;28;20443;-51
2024/01/13 09:34:53;;;;;;;13.30;6.68;;;3.90;96.80;;;;;;5009479;28;20036;-55
2024/01/13 09:37:19;;;;;;;12.77;7.32;;;3.90;96.80;;;;;;5009971;28;20025;-53
2024/01/13 09:39:45;;;;;;;21.83;8.73;;;3.90;96.80;;;;;;5109430;27;20051;-55
2024/01/13 09:42:22;;;;;;;24.95;9.88;;;3.90;96.80;;;;;;5009581;28;20060;-55
2024/01/13 09:44:54;;;;;;;20.83;10.60;;;4.00;96.70;;;;;;5009368;28;20042;-52
2024/01/13 09:47:20;;;;;;;15.07;9.27;;;4.00;96.70;;;;;;5009890;28;20045;-52
2024/01/13 09:49:50;;;;;;;27.17;12.18;;;4.00;96.70;;;;;;5009526;28;20091;-51
2024/01/13 09:52:18;;;;;;;19.08;9.27;;;4.00;96.70;;;;;;4992254;28;20052;-53
2024/01/13 09:54:50;;;;;;;23.20;10.07;;;4.00;96.80;;;;;;5009438;28;20022;-52
2024/01/13 09:57:17;;;;;;;19.63;10.93;;;4.10;96.80;;;;;;4992836;28;20411;-52
2024/01/13 09:59:44;;;;;;;20.98;10.75;;;4.20;96.80;;;;;;5009565;28;20473;-50
2024/01/13 10:02:15;;;;;;;30.65;13.13;;;4.20;96.80;;;;;;4991552;28;20038;-52
2024/01/13 10:04:44;;;;;;;21.50;12.32;;;4.20;96.80;;;;;;5026961;28;20040;-52
2024/01/13 10:07:10;;;;;;;24.77;11.70;;;4.30;96.80;;;;;;5028979;28;20048;-49
2024/01/13 10:09:40;;;;;;;35.25;20.90;;;4.30;96.80;;;;;;4993838;28;20026;-48
2024/01/13 10:12:07;;;;;;;57.10;30.20;;;4.30;96.70;;;;;;5009044;28;20045;-49
2024/01/13 10:14:36;;;;;;;28.60;16.85;;;4.40;96.80;;;;;;5008651;28;20022;-49
2024/01/13 10:17:04;;;;;;;35.50;19.90;;;4.40;96.70;;;;;;4991970;28;20116;-50
2024/01/13 10:19:43;;;;;;;23.70;14.15;;;4.40;96.70;;;;;;5009118;28;20034;-52
2024/01/13 10:22:13;;;;;;;35.20;12.63;;;4.40;96.70;;;;;;5008946;28;20090;-51
2024/01/13 10:24:44;;;;;;;25.35;12.73;;;4.50;96.70;;;;;;5009047;28;20033;-52
2024/01/13 10:27:11;;;;;;;29.23;13.40;;;4.50;96.70;;;;;;5009129;28;20041;-53
2024/01/13 10:29:40;;;;;;;26.52;12.77;;;4.60;96.70;;;;;;5008953;28;20798;-50
2024/01/13 10:32:10;;;;;;;28.20;12.07;;;4.60;96.70;;;;;;5021913;28;20175;-49
2024/01/13 10:34:37;;;;;;;30.77;13.30;;;4.70;96.70;;;;;;5028722;28;20029;-51
2024/01/13 10:37:10;;;;;;;26.67;13.98;;;4.80;96.60;;;;;;5025763;28;20028;-54
2024/01/13 10:39:35;;;;;;;24.35;9.95;;;4.70;96.50;;;;;;5111624;27;20031;-55
2024/01/13 10:42:08;;;;;;;24.73;12.02;;;4.70;96.50;;;;;;5042942;27;20763;-58
2024/01/13 10:44:40;;;;;;;38.63;13.63;;;4.70;96.50;;;;;;5008871;28;20053;-58
2024/01/13 10:47:14;;;;;;;31.25;14.98;;;4.70;96.50;;;;;;5008891;28;20034;-53
2024/01/13 10:49:42;;;;;;;30.70;14.93;;;4.70;96.40;;;;;;5008824;28;20468;-55
2024/01/13 10:52:14;;;;;;;44.10;28.73;;;4.70;96.60;;;;;;5011436;28;20087;-56
2024/01/13 10:54:41;;;;;;;31.92;19.77;;;4.60;96.40;;;;;;5027916;28;20077;-54
2024/01/13 10:57:13;;;;;;;23.17;14.38;;;4.60;96.50;;;;;;5028423;28;20026;-53
2024/01/13 10:59:43;;;;;;;24.88;14.13;;;4.60;96.50;;;;;;5027859;28;20029;-52
2024/01/13 11:02:12;;;;;;;21.88;8.43;;;4.70;96.60;;;;;;5028024;28;20037;-52
2024/01/13 11:04:41;;;;;;;13.77;7.10;;;4.70;96.40;;;;;;5028045;28;20116;-53
2024/01/13 11:07:07;;;;;;;;;;;4.70;96.40;;;;;;5027789;28;20052;-50
2024/01/13 11:09:37;;;;;;;18.63;5.85;;;4.70;96.50;;;;;;5016551;28;20338;-52
2024/01/13 11:12:19;;;;;;;14.52;5.40;;;4.70;96.50;;;;;;5007059;28;20033;-58
2024/01/13 11:15:14;;;;;;;14.30;5.78;;;4.80;96.50;;;;;;5007654;28;20074;-52
2024/01/13 11:17:40;;;;;;;12.45;5.03;;;4.80;96.50;;;;;;4991675;28;20075;-57
2024/01/13 11:20:10;;;;;;;13.07;4.85;;;4.90;96.60;;;;;;5009769;28;20530;-58
2024/01/13 11:22:41;;;;;;;13.75;4.53;;;4.90;96.50;;;;;;5023863;28;20447;-55
2024/01/13 11:25:28;;;;;;;12.27;3.70;;;4.90;96.50;;;;;;5007766;28;20459;-55
2024/01/13 11:28:13;;;;;;;11.27;4.22;;;4.90;96.50;;;;;;5011027;28;20034;-55
2024/01/13 11:30:46;;;;;;;10.15;3.20;;;4.90;96.50;;;;;;5011374;28;20030;-55
2024/01/13 11:33:31;;;;;;;8.43;2.78;;;4.90;96.50;;;;;;5010970;28;20407;-54
2024/01/13 11:35:59;;;;;;;11.88;2.88;;;4.90;96.50;;;;;;5011394;28;20030;-54
2024/01/13 11:38:26;;;;;;;8.32;2.47;;;4.90;96.60;;;;;;5034330;27;20086;-58
2024/01/13 11:40:56;;;;;;;14.68;3.72;;;4.90;96.60;;;;;;5023079;28;20048;-56
2024/01/13 11:43:23;;;;;;;;;;;5.00;96.60;;;;;;5011363;28;20133;-55
2024/01/13 11:45:53;;;;;;;4.97;2.03;;;5.00;96.60;;;;;;5011186;28;19918;-55
2024/01/13 11:48:41;;;;;;;12.05;3.00;;;5.00;96.50;;;;;;5011516;28;20057;-55
2024/01/13 11:51:08;;;;;;;6.35;2.60;;;5.00;96.60;;;;;;5011096;28;20083;-57
2024/01/13 11:53:43;;;;;;;8.25;3.28;;;5.00;96.50;;;;;;5011027;28;20321;-54
2024/01/13 11:56:11;;;;;;;9.98;3.92;;;5.00;96.70;;;;;;5021392;28;20094;-50
2024/01/13 11:58:39;;;;;;;10.15;3.72;;;4.90;96.60;;;;;;5016391;28;20018;-54
2024/01/13 12:01:08;;;;;;;10.00;4.60;;;4.90;96.60;;;;;;5013331;28;20030;-49
2024/01/13 12:03:34;;;;;;;10.07;3.92;;;5.00;96.70;;;;;;5010735;28;20029;-49
2024/01/13 12:06:01;;;;;;;11.18;3.83;;;5.00;96.60;;;;;;5011008;28;20071;-50
2024/01/13 12:08:31;;;;;;;8.95;3.45;;;5.00;96.70;;;;;;5011192;28;20096;-51
2024/01/13 12:11:00;;;;;;;;;;;5.10;96.70;;;;;;5018853;28;20022;-52
2024/01/13 12:13:27;;;;;;;7.87;2.10;;;5.10;96.80;;;;;;5010707;28;19913;-48
2024/01/13 12:16:07;;;;;;;11.30;2.60;;;5.10;96.70;;;;;;5011122;28;20137;-49
2024/01/13 12:18:33;;;;;;;;;;;5.20;96.80;;;;;;5020567;28;20017;-48
2024/01/13 12:21:04;;;;;;;8.52;3.65;;;5.30;96.80;;;;;;5024613;28;19999;-49
2024/01/13 12:23:30;;;;;;;6.65;2.90;;;5.30;96.80;;;;;;5020652;28;20071;-48
2024/01/13 12:25:57;;;;;;;13.73;2.88;;;5.30;96.70;;;;;;5017364;28;20409;-47
2024/01/13 12:28:24;;;;;;;13.50;3.58;;;5.40;96.70;;;;;;5012880;28;20094;-49
2024/01/13 12:30:54;;;;;;;5.80;2.20;;;5.40;96.80;;;;;;5010755;28;20049;-49
2024/01/13 12:33:24;;;;;;;8.95;2.92;;;5.40;96.70;;;;;;4996306;28;20053;-47
2024/01/13 12:35:59;;;;;;;11.32;3.33;;;5.40;96.70;;;;;;5009589;28;20026;-46
2024/01/13 12:38:27;;;;;;;14.10;4.90;;;5.40;96.70;;;;;;5048510;27;20076;-48
2024/01/13 12:40:55;;;;;;;11.05;4.47;;;5.50;96.70;;;;;;5026857;27;20485;-49
2024/01/13 12:43:23;;;;;;;15.43;4.18;;;5.50;96.70;;;;;;4992566;28;20595;-50
2024/01/13 12:45:52;;;;;;;11.32;2.45;;;5.50;96.60;;;;;;5009974;28;20058;-51
2024/01/13 12:48:23;;;;;;;7.55;2.42;;;5.50;96.70;;;;;;5013036;28;20083;-50
2024/01/13 12:50:50;;;;;;;8.50;3.05;;;5.50;96.60;;;;;;5010176;28;20049;-49
2024/01/13 12:53:25;;;;;;;10.55;2.92;;;5.50;96.40;;;;;;4992280;28;20030;-49
2024/01/13 12:55:56;;;;;;;12.32;2.60;;;5.50;96.50;;;;;;5010549;28;20421;-51
2024/01/13 12:58:22;;;;;;;;;;;5.50;96.40;;;;;;5021952;28;20040;-53
2024/01/13 13:00:49;;;;;;;6.25;2.53;;;5.50;96.40;;;;;;5012137;28;19909;-52